createdAt,value
2023-02-01T00:01:55.856Z,8.00
2023-02-01T00:04:44.403Z,8.10
2023-02-01T00:07:29.812Z,8.10
2023-02-01T00:10:15.059Z,8.10
2023-02-01T00:13:00.815Z,8.10
2023-02-01T00:15:46.456Z,8.10
2023-02-01T00:18:33.195Z,8.00
2023-02-01T00:21:21.368Z,8.00
2023-02-01T00:24:07.869Z,8.00
2023-02-01T00:26:53.418Z,8.00
2023-02-01T00:29:38.882Z,8.00
2023-02-01T00:32:24.522Z,8.00
2023-02-01T00:35:10.229Z,8.00
2023-02-01T00:37:56.035Z,7.90
2023-02-01T00:40:41.425Z,7.90
2023-02-01T00:43:27.183Z,7.90
2023-02-01T00:46:14.016Z,7.90
2023-02-01T00:48:59.549Z,8.00
2023-02-01T00:51:45.416Z,7.90
2023-02-01T00:54:31.013Z,8.00
2023-02-01T00:57:16.336Z,7.90
2023-02-01T01:00:01.536Z,8.00
2023-02-01T01:02:46.847Z,8.00
2023-02-01T01:05:32.491Z,8.00
2023-02-01T01:08:17.996Z,8.00
2023-02-01T01:11:15.827Z,8.00
2023-02-01T01:14:01.584Z,8.00
2023-02-01T01:16:46.956Z,8.10
2023-02-01T01:19:32.474Z,8.10
2023-02-01T01:22:18.909Z,8.10
2023-02-01T01:25:05.181Z,8.10
2023-02-01T01:27:50.624Z,8.10
2023-02-01T01:30:36.521Z,8.10
2023-02-01T01:33:22.197Z,8.10
2023-02-01T01:36:12.505Z,8.20
2023-02-01T01:38:58.024Z,8.10
2023-02-01T01:41:43.520Z,8.20
2023-02-01T01:45:06.802Z,8.10
2023-02-01T01:48:04.793Z,8.20
2023-02-01T01:50:57.016Z,8.30
2023-02-01T01:53:54.772Z,8.40
2023-02-01T01:56:42.083Z,8.40
2023-02-01T01:59:28.293Z,8.40
2023-02-01T02:02:14.449Z,8.50
2023-02-01T02:05:00.118Z,8.50
2023-02-01T02:07:49.200Z,8.50
2023-02-01T02:10:53.348Z,8.50
2023-02-01T02:13:42.490Z,8.50
2023-02-01T02:16:43.122Z,8.60
2023-02-01T02:19:59.765Z,8.60
2023-02-01T02:23:03.307Z,8.60
2023-02-01T02:26:11.392Z,8.60
2023-02-01T02:29:18.737Z,8.60
2023-02-01T02:32:38.220Z,8.60
2023-02-01T02:35:29.660Z,8.60
2023-02-01T02:38:41.020Z,8.60
2023-02-01T02:41:51.317Z,8.70
2023-02-01T02:45:10.145Z,8.70
2023-02-01T02:48:51.050Z,8.70
2023-02-01T02:52:06.061Z,8.70
2023-02-01T02:54:55.187Z,8.80
2023-02-01T02:58:03.577Z,8.80
2023-02-01T03:01:07.757Z,8.80
2023-02-01T03:04:09.719Z,8.80
2023-02-01T03:06:57.291Z,8.80
2023-02-01T03:09:48.673Z,8.80
2023-02-01T03:12:59.171Z,8.70
2023-02-01T03:15:59.489Z,8.70
2023-02-01T03:19:22.999Z,8.60
2023-02-01T03:22:12.544Z,8.60
2023-02-01T03:25:03.648Z,8.50
2023-02-01T03:28:05.066Z,8.40
2023-02-01T03:30:51.291Z,8.40
2023-02-01T03:33:40.141Z,8.30
2023-02-01T03:36:49.856Z,8.30
2023-02-01T03:39:48.658Z,8.30
2023-02-01T03:42:44.167Z,8.30
2023-02-01T03:45:43.591Z,8.40
2023-02-01T03:48:33.615Z,8.40
2023-02-01T03:51:26.307Z,8.40
2023-02-01T03:54:15.984Z,8.40
2023-02-01T03:57:06.094Z,8.40
2023-02-01T03:59:51.475Z,8.40
2023-02-01T04:02:37.617Z,8.40
2023-02-01T04:05:24.135Z,8.40
2023-02-01T04:08:18.348Z,8.40
2023-02-01T04:11:03.817Z,8.40
2023-02-01T04:13:49.295Z,8.50
2023-02-01T04:16:35.829Z,8.50
2023-02-01T04:19:21.388Z,8.60
2023-02-01T04:22:07.186Z,8.60
2023-02-01T04:24:52.324Z,8.70
2023-02-01T04:27:37.925Z,8.70
2023-02-01T04:30:28.993Z,8.70
2023-02-01T04:33:19.728Z,8.80
2023-02-01T04:36:05.140Z,8.70
2023-02-01T04:38:51.576Z,8.70
2023-02-01T04:41:37.090Z,8.60
2023-02-01T04:44:22.568Z,8.50
2023-02-01T04:47:08.183Z,8.40
2023-02-01T04:49:53.526Z,8.40
2023-02-01T04:52:44.873Z,8.40
2023-02-01T04:55:30.732Z,8.30
2023-02-01T04:58:16.521Z,8.30
2023-02-01T05:01:08.713Z,8.20
2023-02-01T05:03:54.092Z,8.20
2023-02-01T05:06:39.808Z,8.20
2023-02-01T05:09:25.043Z,8.20
2023-02-01T05:12:35.948Z,8.10
2023-02-01T05:15:21.611Z,8.10
2023-02-01T05:18:10.292Z,8.00
2023-02-01T05:20:56.694Z,8.00
2023-02-01T05:24:03.891Z,7.90
2023-02-01T05:26:50.179Z,7.90
2023-02-01T05:29:35.858Z,7.90
2023-02-01T05:32:22.998Z,7.90
2023-02-01T05:35:09.443Z,7.90
2023-02-01T05:37:55.046Z,7.90
2023-02-01T05:40:50.375Z,7.90
2023-02-01T05:43:36.029Z,7.90
2023-02-01T05:46:24.188Z,7.90
2023-02-01T05:49:10.270Z,8.00
2023-02-01T05:51:55.819Z,8.00
2023-02-01T05:54:41.034Z,8.00
2023-02-01T05:57:26.741Z,8.00
2023-02-01T06:00:15.117Z,8.00
2023-02-01T06:03:00.807Z,8.00
2023-02-01T06:05:53.019Z,8.00
2023-02-01T06:08:41.170Z,8.00
2023-02-01T06:11:33.055Z,8.00
2023-02-01T06:14:19.282Z,8.00
2023-02-01T06:17:04.592Z,8.00
2023-02-01T06:19:49.900Z,8.00
2023-02-01T06:22:38.587Z,8.00
2023-02-01T06:25:23.740Z,8.10
2023-02-01T06:28:09.306Z,8.20
2023-02-01T06:30:54.910Z,8.20
2023-02-01T06:33:41.466Z,8.30
2023-02-01T06:36:30.748Z,8.30
2023-02-01T06:39:17.177Z,8.30
2023-02-01T06:42:03.413Z,8.30
2023-02-01T06:44:49.102Z,8.30
2023-02-01T06:47:34.698Z,8.30
2023-02-01T06:50:19.917Z,8.30
2023-02-01T06:53:05.535Z,8.30
2023-02-01T06:55:59.738Z,8.30
2023-02-01T06:58:52.595Z,8.20
2023-02-01T07:01:38.396Z,8.20
2023-02-01T07:04:25.869Z,8.20
2023-02-01T07:07:11.936Z,8.20
2023-02-01T07:10:01.975Z,8.10
2023-02-01T07:12:47.370Z,8.20
2023-02-01T07:15:32.958Z,8.10
2023-02-01T07:18:20.813Z,8.10
2023-02-01T07:21:06.649Z,8.10
2023-02-01T07:23:53.641Z,8.20
2023-02-01T07:26:39.339Z,8.10
2023-02-01T07:29:26.218Z,8.20
2023-02-01T07:32:11.982Z,8.20
2023-02-01T07:34:58.397Z,8.20
2023-02-01T07:37:43.935Z,8.30
2023-02-01T07:40:31.409Z,8.20
2023-02-01T07:43:16.964Z,8.30
2023-02-01T07:46:06.609Z,8.30
2023-02-01T07:48:52.207Z,8.20
2023-02-01T07:51:37.734Z,8.20
2023-02-01T07:54:25.639Z,8.20
2023-02-01T07:57:12.763Z,8.20
2023-02-01T08:00:16.705Z,8.30
2023-02-01T08:03:04.444Z,8.30
2023-02-01T08:05:54.417Z,8.30
2023-02-01T08:08:39.685Z,8.30
2023-02-01T08:11:26.793Z,8.40
2023-02-01T08:14:12.383Z,8.40
2023-02-01T08:16:57.720Z,8.40
2023-02-01T08:19:43.261Z,8.40
2023-02-01T08:22:33.241Z,8.40
2023-02-01T08:25:18.862Z,8.50
2023-02-01T08:28:04.487Z,8.50
2023-02-01T08:30:50.099Z,8.60
2023-02-01T08:33:37.866Z,8.70
2023-02-01T08:36:29.180Z,8.80
2023-02-01T08:39:14.522Z,8.80
2023-02-01T08:42:21.591Z,8.90
2023-02-01T08:45:09.017Z,8.90
2023-02-01T08:47:54.633Z,9.00
2023-02-01T08:50:40.086Z,9.10
2023-02-01T08:53:25.753Z,9.10
2023-02-01T08:56:13.113Z,9.10
2023-02-01T08:58:58.288Z,9.20
2023-02-01T09:01:44.403Z,9.20
2023-02-01T09:04:30.221Z,9.30
2023-02-01T09:07:16.034Z,9.30
2023-02-01T09:10:02.174Z,9.40
2023-02-01T09:12:47.468Z,9.40
2023-02-01T09:15:33.272Z,9.50
2023-02-01T09:18:19.848Z,9.60
2023-02-01T09:21:06.913Z,9.60
2023-02-01T09:23:53.051Z,9.80
2023-02-01T09:26:38.824Z,9.80
2023-02-01T09:29:24.271Z,9.90
2023-02-01T09:32:12.886Z,9.90
2023-02-01T09:34:58.245Z,9.90
2023-02-01T09:37:46.369Z,9.90
2023-02-01T09:40:32.151Z,10.00
2023-02-01T09:43:39.800Z,9.90
2023-02-01T09:46:38.019Z,9.90
2023-02-01T09:49:32.161Z,10.00
2023-02-01T09:52:25.603Z,10.00
2023-02-01T09:55:20.651Z,10.00
2023-02-01T09:58:20.025Z,10.00
2023-02-01T10:01:21.012Z,9.90
2023-02-01T10:04:10.463Z,9.90
2023-02-01T10:07:16.624Z,9.80
2023-02-01T10:10:15.562Z,9.80
2023-02-01T10:13:28.578Z,9.80
2023-02-01T10:16:34.981Z,9.80
2023-02-01T10:19:52.716Z,9.80
2023-02-01T10:23:13.432Z,9.80
2023-02-01T10:25:56.019Z,9.80
2023-02-01T10:28:42.859Z,9.70
2023-02-01T10:31:36.858Z,9.70
2023-02-01T10:34:27.941Z,9.80
2023-02-01T10:37:29.836Z,9.80
2023-02-01T10:40:28.027Z,9.90
2023-02-01T10:43:13.536Z,9.90
2023-02-01T10:45:58.944Z,10.00
2023-02-01T10:48:45.005Z,10.10
2023-02-01T10:52:02.040Z,10.10
2023-02-01T10:54:47.707Z,10.20
2023-02-01T10:57:33.325Z,10.20
2023-02-01T11:00:23.408Z,10.20
2023-02-01T11:03:46.288Z,10.20
2023-02-01T11:06:33.918Z,10.20
2023-02-01T11:09:25.649Z,10.10
2023-02-01T11:12:26.633Z,10.10
2023-02-01T11:15:24.105Z,10.10
2023-02-01T11:18:30.458Z,10.10
2023-02-01T11:21:16.065Z,10.10
2023-02-01T11:24:04.448Z,10.10
2023-02-01T11:26:56.346Z,10.00
2023-02-01T11:29:46.503Z,10.10
2023-02-01T11:32:41.726Z,10.20
2023-02-01T11:35:29.520Z,10.20
2023-02-01T11:38:33.641Z,10.30
2023-02-01T11:41:28.026Z,10.30
2023-02-01T11:44:27.090Z,10.40
2023-02-01T11:47:23.449Z,10.50
2023-02-01T11:50:19.095Z,10.50
2023-02-01T11:53:04.564Z,10.60
2023-02-01T11:56:11.566Z,10.60
2023-02-01T11:59:09.072Z,10.70
2023-02-01T12:02:19.919Z,10.70
2023-02-01T12:05:17.629Z,10.70
2023-02-01T12:08:21.146Z,10.70
2023-02-01T12:11:24.145Z,10.60
2023-02-01T12:14:29.729Z,10.50
2023-02-01T12:17:23.896Z,10.50
2023-02-01T12:20:17.949Z,10.50
2023-02-01T12:23:31.579Z,10.40
2023-02-01T12:26:48.610Z,10.40
2023-02-01T12:29:53.433Z,10.50
2023-02-01T12:33:09.917Z,10.50
2023-02-01T12:36:47.602Z,10.60
2023-02-01T12:39:39.738Z,10.80
2023-02-01T12:42:39.947Z,11.00
2023-02-01T12:45:43.006Z,11.10
2023-02-01T12:48:37.817Z,11.40
2023-02-01T12:51:31.022Z,11.40
2023-02-01T12:54:42.863Z,11.40
2023-02-01T12:57:33.431Z,11.50
2023-02-01T13:00:33.678Z,12.00
2023-02-01T13:04:08.044Z,12.20
2023-02-01T13:07:01.738Z,12.30
2023-02-01T13:10:17.620Z,11.90
2023-02-01T13:13:20.377Z,11.70
2023-02-01T13:16:28.142Z,11.80
2023-02-01T13:19:30.612Z,12.10
2023-02-01T13:22:29.908Z,12.00
2023-02-01T13:25:25.856Z,12.00
2023-02-01T13:28:21.050Z,11.70
2023-02-01T13:31:34.595Z,11.60
2023-02-01T13:35:13.047Z,11.40
2023-02-01T13:38:26.861Z,11.20
2023-02-01T13:41:32.903Z,11.10
2023-02-01T13:44:34.485Z,10.80
2023-02-01T13:47:32.682Z,10.80
2023-02-01T13:50:18.020Z,10.80
2023-02-01T13:53:13.004Z,10.70
2023-02-01T13:56:02.972Z,10.70
2023-02-01T13:58:49.463Z,10.70
2023-02-01T14:01:36.395Z,10.70
2023-02-01T14:04:48.984Z,10.70
2023-02-01T14:07:34.625Z,10.70
2023-02-01T14:11:00.953Z,10.60
2023-02-01T14:13:46.528Z,10.60
2023-02-01T14:16:32.041Z,10.60
2023-02-01T14:19:23.132Z,10.60
2023-02-01T14:22:25.302Z,10.70
2023-02-01T14:25:19.238Z,10.70
2023-02-01T14:28:26.462Z,10.70
2023-02-01T14:31:50.093Z,10.70
2023-02-01T14:34:49.712Z,10.70
2023-02-01T14:37:38.901Z,10.70
2023-02-01T14:40:29.149Z,10.60
2023-02-01T14:43:26.580Z,10.60
2023-02-01T14:46:20.069Z,10.50
2023-02-01T14:49:07.267Z,10.60
2023-02-01T14:51:55.443Z,10.60
2023-02-01T14:54:43.477Z,10.60
2023-02-01T14:57:31.740Z,10.60
2023-02-01T15:00:32.131Z,10.60
2023-02-01T15:03:59.122Z,10.60
2023-02-01T15:07:07.800Z,10.60
2023-02-01T15:09:57.324Z,10.50
2023-02-01T15:12:49.381Z,10.50
2023-02-01T15:15:37.343Z,10.50
2023-02-01T15:18:23.181Z,10.50
2023-02-01T15:21:28.760Z,10.50
2023-02-01T15:24:25.861Z,10.50
2023-02-01T15:27:11.802Z,10.40
2023-02-01T15:30:16.917Z,10.40
2023-02-01T15:33:13.623Z,10.40
2023-02-01T15:36:18.594Z,10.40
2023-02-01T15:39:24.050Z,10.40
2023-02-01T15:42:17.014Z,10.40
2023-02-01T15:45:05.665Z,10.40
2023-02-01T15:47:53.278Z,10.40
2023-02-01T15:50:41.690Z,10.30
2023-02-01T15:53:34.769Z,10.30
2023-02-01T15:56:32.302Z,10.30
2023-02-01T15:59:19.952Z,10.30
2023-02-01T16:02:05.715Z,10.30
2023-02-01T16:04:52.295Z,10.30
2023-02-01T16:07:38.007Z,10.30
2023-02-01T16:10:28.513Z,10.30
2023-02-01T16:13:15.659Z,10.30
2023-02-01T16:16:01.302Z,10.40
2023-02-01T16:18:46.852Z,10.40
2023-02-01T16:21:32.409Z,10.40
2023-02-01T16:24:17.793Z,10.40
2023-02-01T16:27:03.987Z,10.40
2023-02-01T16:29:50.479Z,10.40
2023-02-01T16:32:39.055Z,10.40
2023-02-01T16:35:27.879Z,10.40
2023-02-01T16:38:14.799Z,10.40
2023-02-01T16:41:00.845Z,10.40
2023-02-01T16:43:46.478Z,10.50
2023-02-01T16:46:40.521Z,10.50
2023-02-01T16:49:26.610Z,10.50
2023-02-01T16:52:19.504Z,10.50
2023-02-01T16:55:13.283Z,10.50
2023-02-01T16:57:58.596Z,10.50
2023-02-01T17:00:47.442Z,10.50
2023-02-01T17:03:32.796Z,10.50
2023-02-01T17:06:24.121Z,10.50
2023-02-01T17:09:10.829Z,10.50
2023-02-01T17:11:56.360Z,10.50
2023-02-01T17:14:42.689Z,10.50
2023-02-01T17:17:39.200Z,10.50
2023-02-01T17:20:27.697Z,10.50
2023-02-01T17:23:13.344Z,10.50
2023-02-01T17:25:58.994Z,10.50
2023-02-01T17:28:44.294Z,10.50
2023-02-01T17:31:29.604Z,10.40
2023-02-01T17:34:17.536Z,10.40
2023-02-01T17:37:03.016Z,10.30
2023-02-01T17:39:57.680Z,10.30
2023-02-01T17:42:43.262Z,10.30
2023-02-01T17:45:38.612Z,10.30
2023-02-01T17:48:24.229Z,10.30
2023-02-01T17:51:17.741Z,10.20
2023-02-01T17:54:04.533Z,10.20
2023-02-01T17:56:50.148Z,10.20
2023-02-01T17:59:35.461Z,10.20
2023-02-01T18:02:23.278Z,10.20
2023-02-01T18:05:20.695Z,10.20
2023-02-01T18:08:06.468Z,10.20
2023-02-01T18:10:54.437Z,10.20
2023-02-01T18:13:43.843Z,10.20
2023-02-01T18:16:32.927Z,10.20
2023-02-01T18:19:21.396Z,10.20
2023-02-01T18:22:09.937Z,10.20
2023-02-01T18:24:57.775Z,10.20
2023-02-01T18:27:43.172Z,10.20
2023-02-01T18:30:33.954Z,10.30
2023-02-01T18:33:23.380Z,10.30
2023-02-01T18:36:13.019Z,10.30
2023-02-01T18:38:58.182Z,10.30
2023-02-01T18:41:45.621Z,10.20
2023-02-01T18:44:34.591Z,10.30
2023-02-01T18:47:22.765Z,10.30
2023-02-01T18:50:10.628Z,10.30
2023-02-01T18:52:57.787Z,10.30
2023-02-01T18:55:43.388Z,10.30
2023-02-01T18:58:29.205Z,10.30
2023-02-01T19:01:17.776Z,10.30
2023-02-01T19:04:12.761Z,10.30
2023-02-01T19:07:03.777Z,10.30
2023-02-01T19:09:49.624Z,10.30
2023-02-01T19:12:35.558Z,10.30
2023-02-01T19:15:30.277Z,10.30
2023-02-01T19:18:22.924Z,10.30
2023-02-01T19:21:10.951Z,10.30
2023-02-01T19:23:56.630Z,10.30
2023-02-01T19:26:43.631Z,10.30
2023-02-01T19:29:29.578Z,10.20
2023-02-01T19:32:14.991Z,10.30
2023-02-01T19:35:02.380Z,10.30
2023-02-01T19:37:49.483Z,10.30
2023-02-01T19:40:34.976Z,10.30
2023-02-01T19:43:20.331Z,10.30
2023-02-01T19:46:05.856Z,10.30
2023-02-01T19:48:51.704Z,10.30
2023-02-01T19:51:38.645Z,10.30
2023-02-01T19:54:24.129Z,10.30
2023-02-01T19:57:09.937Z,10.30
2023-02-01T19:59:55.504Z,10.30
2023-02-01T20:02:40.456Z,10.30
2023-02-01T20:05:26.363Z,10.40
2023-02-01T20:08:11.635Z,10.40
2023-02-01T20:10:57.753Z,10.40
2023-02-01T20:13:43.472Z,10.40
2023-02-01T20:16:28.973Z,10.30
2023-02-01T20:19:15.701Z,10.30
2023-02-01T20:22:01.041Z,10.30
2023-02-01T20:24:48.785Z,10.30
2023-02-01T20:27:35.215Z,10.40
2023-02-01T20:30:21.133Z,10.30
2023-02-01T20:33:09.453Z,10.30
2023-02-01T20:35:56.991Z,10.30
2023-02-01T20:38:45.565Z,10.30
2023-02-01T20:41:31.696Z,10.30
2023-02-01T20:44:17.153Z,10.40
2023-02-01T20:47:04.931Z,10.40
2023-02-01T20:49:50.690Z,10.40
2023-02-01T20:52:36.478Z,10.40
2023-02-01T20:55:22.482Z,10.40
2023-02-01T20:58:08.342Z,10.40
2023-02-01T21:00:54.137Z,10.40
2023-02-01T21:03:40.077Z,10.40
2023-02-01T21:06:26.609Z,10.40
2023-02-01T21:09:12.122Z,10.40
2023-02-01T21:11:57.668Z,10.50
2023-02-01T21:14:45.643Z,10.50
2023-02-01T21:17:32.043Z,10.50
2023-02-01T21:20:18.597Z,10.60
2023-02-01T21:23:04.212Z,10.60
2023-02-01T21:25:49.496Z,10.60
2023-02-01T21:28:35.000Z,10.60
2023-02-01T21:31:29.714Z,10.60
2023-02-01T21:34:17.622Z,10.60
2023-02-01T21:37:06.138Z,10.60
2023-02-01T21:39:52.517Z,10.70
2023-02-01T21:42:39.193Z,10.70
2023-02-01T21:45:29.972Z,10.70
2023-02-01T21:48:18.347Z,10.70
2023-02-01T21:51:04.274Z,10.70
2023-02-01T21:53:51.813Z,10.70
2023-02-01T21:56:37.741Z,10.70
2023-02-01T21:59:25.978Z,10.70
2023-02-01T22:02:16.796Z,10.70
2023-02-01T22:05:05.278Z,10.70
2023-02-01T22:07:53.565Z,10.70
2023-02-01T22:10:39.258Z,10.70
2023-02-01T22:13:24.895Z,10.70
2023-02-01T22:16:13.740Z,10.70
2023-02-01T22:18:58.997Z,10.70
2023-02-01T22:21:54.484Z,10.70
2023-02-01T22:24:41.548Z,10.60
2023-02-01T22:28:20.508Z,10.60
2023-02-01T22:30:32.713Z,10.60
2023-02-01T22:33:19.046Z,10.60
2023-02-01T22:36:05.613Z,10.50
2023-02-01T22:38:52.221Z,10.50
2023-02-01T22:41:37.708Z,10.60
2023-02-01T22:44:23.821Z,10.60
2023-02-01T22:47:09.565Z,10.50
2023-02-01T22:49:55.037Z,10.50
2023-02-01T22:52:40.376Z,10.60
2023-02-01T22:55:26.104Z,10.60
2023-02-01T22:58:15.921Z,10.60
2023-02-01T23:01:12.642Z,10.60
2023-02-01T23:03:59.641Z,10.50
2023-02-01T23:06:45.304Z,10.60
2023-02-01T23:09:30.782Z,10.50
2023-02-01T23:12:16.362Z,10.50
2023-02-01T23:15:08.197Z,10.50
2023-02-01T23:17:53.362Z,10.50
2023-02-01T23:20:40.955Z,10.50
2023-02-01T23:23:29.142Z,10.50
2023-02-01T23:26:20.097Z,10.50
2023-02-01T23:29:05.986Z,10.60
2023-02-01T23:31:54.743Z,10.50
2023-02-01T23:34:40.692Z,10.50
2023-02-01T23:37:26.852Z,10.50
2023-02-01T23:40:15.700Z,10.50
2023-02-01T23:43:19.576Z,10.40
2023-02-01T23:46:15.928Z,10.40
2023-02-01T23:49:03.508Z,10.30
2023-02-01T23:51:52.908Z,10.30
2023-02-01T23:54:38.559Z,10.30
2023-02-01T23:57:23.921Z,10.30
